South English, IA (52335)

10:01 AM CDT on October 22, 2014 (GMT -0500)
Dietze Weather Station | Change Station
CLOSE
Current Station
Personal Weather Station
Location: Millersburg, IA
Elevation: 883 ft
Nearby Weather Stations

Elev 883 ft 41.57 °N, 92.16 °W | Updated 8 seconds ago

Clear
Clear
47.3 °F
Feels Like 47 °F
N
1.6
Wind Variable Wind from East
Gusts 6.9 mph

Today
High -- | Low -- °F
--% Chance of Precip.
Yesterday
High -- | Low -- °F
Precip. -- in
7:28 AM 6:16 PM
Waning Crescent, 2% visible
Pressure 30.29 in
Visibility 10.0 miles
Clouds Clear
Windchill 47 °F
Dew Point 42 °F
Humidity 80%
Rainfall 0.00 in
Snow Depth Not available.
UV 1 out of 12
Pollen 1.30 out of 12
Air Quality Not available.
Flu Activity Sporadic
METAR KOOA 221415Z AUTO 15010G14KT 10SM CLR 06/04 A3029 RMK AO2 T00620044

More Conditions Fewer Conditions

Pressure 30.29 in
Visibility 10.0 miles
Clouds Clear
Windchill 47 °F
Dew Point 42 °F
Humidity 80%
Rainfall 0.00 in
Snow Depth Not available.
UV 1 out of 12
Pollen 1.30 out of 12
Air Quality Not available.
Flu Activity Sporadic
METAR KOOA 221415Z AUTO 15010G14KT 10SM CLR 06/04 A3029 RMK AO2 T00620044

More Conditions Fewer Conditions

10-Day Weather Forecast

Almanac

Astronomy

Oct. 22, 2014 Rise Set
Actual Time 7:28 AM CDT 6:16 PM CDT
Civil Twilight 7:00 AM CDT 6:44 PM CDT
Nautical Twilight 6:27 AM CDT 7:17 PM CDT
Astronomical Twilight 5:55 AM CDT 7:49 PM CDT
Moon 6:09 AM CDT 5:44 PM CDT
Length of Visible Light 11h 44m
Length of Day
10h 48m
Tomorrow will be 2m 36s shorter.
Waning Crescent, 2% of the Moon is Illuminated
Today
Waning Crescent
Oct 23
New
Oct 30
First Quarter
Nov 6
Full
Nov 14
Last Quarter

Today's Extremes

State Highs State Lows

Community

WunderPhotos

Upload Photos

1,763,940 photos uploaded!

WunderBlogs® & News

Nearby

Snow Depth

Station Depth Elevation
No new snow has been reported.

Earthquake Activity

City Distance Mag. Time & Date
No recent earthquake activity has been reported nearby.
Minimum magnitude displayed is 2.5.

Coastal Water Temperatures

Place Temperature
No Stations Reporting

Nearby Weather Stations